This is the latest recevied weather packets stored in our database for station/object W8AN. If no packets are shown the sender has not sent any weather packets the latest 1 day(s).
| Time | Temp. | Humidity | Pressure | Rain* | Wind** | Luminosity | Snow |
|---|---|---|---|---|---|---|---|
| 1778012904 | 10.56° C | 82% | 4262.7 hPa | 1.78 mm | 3.58 m/s, 337° | 62 W/m² | - |
| 1778012600 | 10.56° C | 82% | 4262.6 hPa | 3.05 mm | 2.68 m/s, 331° | 62 W/m² | - |
| 1778012297 | 10.56° C | 82% | 4262.8 hPa | 1.27 mm | 4.47 m/s, 315° | 69 W/m² | - |
| 1778011995 | 10.56° C | 82% | 4262.8 hPa | 1.78 mm | 2.24 m/s, 324° | 82 W/m² | - |
| 1778011693 | 10.56° C | 82% | 4262.8 hPa | 1.78 mm | 4.02 m/s, 325° | 86 W/m² | - |
| 1778011389 | 11.11° C | 82% | 4262.9 hPa | 1.27 mm | 3.13 m/s, 331° | 78 W/m² | - |
| 1778011085 | 10.56° C | 82% | 4263.2 hPa | 1.27 mm | 2.24 m/s, 311° | 82 W/m² | - |
| 1778010783 | 11.11° C | 82% | 4263 hPa | 0 mm | 3.13 m/s, 285° | 63 W/m² | - |
| 1778010480 | 11.11° C | 83% | 4262.8 hPa | 0 mm | 1.79 m/s, 290° | 132 W/m² | - |
| 1778010176 | 11.11° C | 82% | 4263 hPa | 0 mm | 1.34 m/s, 264° | 113 W/m² | - |
| 1778009876 | 11.11° C | 82% | 4263.2 hPa | 1.78 mm | 3.13 m/s, 249° | 106 W/m² | - |
| 1778009574 | 11.11° C | 83% | 4263.4 hPa | 1.78 mm | 1.79 m/s, 265° | 118 W/m² | - |
| 1778009273 | 11.11° C | 83% | 4263.2 hPa | 0 mm | 2.24 m/s, 254° | 143 W/m² | - |
| 1778008970 | 11.11° C | 83% | 4263.2 hPa | 0 mm | 2.24 m/s, 230° | 118 W/m² | - |
| 1778008668 | 11.11° C | 83% | 4263.4 hPa | 1.78 mm | 1.79 m/s, 238° | 113 W/m² | - |
| 1778008367 | 10.56° C | 82% | 4263.1 hPa | 1.78 mm | 2.24 m/s, 254° | 129 W/m² | - |
| 1778008062 | 10.56° C | 82% | 4263.4 hPa | 1.27 mm | 3.13 m/s, 242° | 78 W/m² | - |
| 1778007757 | 10.56° C | 82% | 4263.4 hPa | 1.27 mm | 0.45 m/s, 231° | 58 W/m² | - |
| 1778007454 | 10.56° C | 82% | 4263.5 hPa | 0 mm | 1.79 m/s, 247° | 55 W/m² | - |
| 1778007151 | 11.11° C | 82% | 4263.5 hPa | 1.78 mm | 3.58 m/s, 231° | 61 W/m² | - |
| 1778006847 | 11.11° C | 83% | 4263.5 hPa | 1.78 mm | 2.68 m/s, 272° | 51 W/m² | - |
| 1778006545 | 11.67° C | 83% | 4263.4 hPa | 1.27 mm | 0 m/s | 72 W/m² | - |
| 1778006241 | 11.11° C | 82% | 4262.7 hPa | 3.05 mm | 1.34 m/s, 296° | 137 W/m² | - |
| 1778005950 | 11.11° C | 82% | 4263.2 hPa | 3.05 mm | 2.68 m/s, 255° | 72 W/m² | - |
| 1778005634 | 11.67° C | 82% | 4262.9 hPa | 3.05 mm | 1.34 m/s, 252° | 77 W/m² | - |
* Rain latest hour (hover to see other rain measurements)
** Current wind speed in m/s (hover to see current wind gust speed)